Time;durP1;ratioP1;P1;durP2;ratioP2;P2;SDS_P1;SDS_P2;PMS_P1;PMS_P2;Temp;Humidity;BMP_temperature;BMP_pressure;BME280_temperature;BME280_humidity;BME280_pressure;Samples;Min_cycle;Max_cycle;Signal;HPM_P1;HPM_P2
2021/07/02 00:01:40;;;;;;;4.68;2.15;;;17.90;73.80;;;;;;2586131;52;21042;-66
2021/07/02 00:04:06;;;;;;;5.37;2.17;;;17.90;73.90;;;;;;2347978;53;21101;-66
2021/07/02 00:06:33;;;;;;;2.92;1.73;;;17.80;73.70;;;;;;2378912;53;20984;-67
2021/07/02 00:08:59;;;;;;;3.72;2.17;;;17.80;73.70;;;;;;2343898;54;21393;-66
2021/07/02 00:11:28;;;;;;;4.62;2.20;;;17.80;73.70;;;;;;2586189;52;21450;-66
2021/07/02 00:13:54;;;;;;;4.95;2.60;;;17.70;73.70;;;;;;2346327;53;20955;-69
2021/07/02 00:16:22;;;;;;;4.55;2.20;;;17.70;73.80;;;;;;2585941;52;21013;-67
2021/07/02 00:18:48;;;;;;;4.45;2.25;;;17.70;73.80;;;;;;2349889;53;22045;-68
2021/07/02 00:21:14;;;;;;;5.57;2.28;;;17.70;73.90;;;;;;2349011;53;20989;-66
2021/07/02 00:23:41;;;;;;;4.40;2.30;;;17.60;73.90;;;;;;2350474;53;21069;-66
2021/07/02 00:26:08;;;;;;;4.93;3.00;;;17.60;74.00;;;;;;2351202;53;20946;-66
2021/07/02 00:28:34;;;;;;;9.32;2.53;;;17.60;74.10;;;;;;2347393;53;20951;-66
2021/07/02 00:34:28;;;;;;;4.00;2.17;;;17.60;73.70;;;;;;2481320;52;21029;-66
2021/07/02 00:37:00;;;;;;;5.40;2.25;;;17.50;74.30;;;;;;2341503;53;21058;-67
2021/07/02 00:39:26;;;;;;;4.00;2.30;;;17.50;74.30;;;;;;2330815;53;21007;-68
2021/07/02 00:41:52;;;;;;;5.35;2.90;;;17.50;74.50;;;;;;2461285;52;21013;-65
2021/07/02 00:44:42;;;;;;;5.43;3.08;;;17.50;74.50;;;;;;2343586;53;20963;-67
2021/07/02 00:47:09;;;;;;;6.18;2.80;;;17.50;73.90;;;;;;2348359;53;21014;-69
2021/07/02 00:49:35;;;;;;;4.90;2.85;;;17.50;74.60;;;;;;2347921;53;20963;-68
2021/07/02 00:52:06;;;;;;;5.57;2.78;;;17.50;74.60;;;;;;2503096;52;20918;-66
2021/07/02 00:54:33;;;;;;;6.22;3.10;;;17.50;74.50;;;;;;2350654;53;20958;-67
2021/07/02 00:57:00;;;;;;;5.97;2.58;;;17.50;74.50;;;;;;2346539;53;21443;-67
2021/07/02 00:59:26;;;;;;;4.95;2.80;;;17.50;74.60;;;;;;2343978;53;20922;-69
2021/07/02 01:01:52;;;;;;;5.15;2.95;;;17.50;74.70;;;;;;2350129;53;20967;-68
2021/07/02 01:04:23;;;;;;;5.28;2.72;;;17.50;74.70;;;;;;2586676;52;21407;-68
2021/07/02 01:06:51;;;;;;;5.25;3.10;;;17.50;74.70;;;;;;2347077;53;20966;-66
2021/07/02 01:09:18;;;;;;;4.57;2.65;;;17.40;74.60;;;;;;2355443;53;20966;-68
2021/07/02 01:11:49;;;;;;;6.45;3.08;;;17.40;74.70;;;;;;2346022;53;20978;-68
2021/07/02 01:14:15;;;;;;;4.93;2.70;;;17.40;74.80;;;;;;2346838;53;21005;-66
2021/07/02 01:16:45;;;;;;;7.85;3.47;;;17.40;74.90;;;;;;2372508;53;20952;-67
2021/07/02 01:19:14;;;;;;;6.57;3.20;;;17.40;74.70;;;;;;2344736;53;21034;-66
2021/07/02 01:21:40;;;;;;;5.50;3.03;;;17.40;74.60;;;;;;2345030;53;20941;-70
2021/07/02 01:24:06;;;;;;;6.00;3.10;;;17.40;74.60;;;;;;2586371;52;20941;-66
2021/07/02 01:26:32;;;;;;;4.90;2.80;;;17.40;74.70;;;;;;2586782;52;20986;-67
2021/07/02 01:28:59;;;;;;;5.22;2.95;;;17.40;74.80;;;;;;2346575;53;21006;-67
2021/07/02 01:31:25;;;;;;;4.55;2.70;;;17.40;74.90;;;;;;2586649;52;21062;-68
2021/07/02 01:33:51;;;;;;;4.28;2.67;;;17.40;74.90;;;;;;2347109;53;21058;-68
2021/07/02 01:36:20;;;;;;;6.05;3.30;;;17.40;74.90;;;;;;2346587;53;20922;-67
2021/07/02 01:38:46;;;;;;;5.25;3.20;;;17.40;74.80;;;;;;2328535;53;21409;-67
2021/07/02 01:41:13;;;;;;;5.12;2.90;;;17.40;74.70;;;;;;2348509;53;20954;-68
2021/07/02 01:43:40;;;;;;;5.35;3.03;;;17.40;74.60;;;;;;2350587;53;20974;-67
2021/07/02 01:46:07;;;;;;;5.82;3.20;;;17.30;74.50;;;;;;2347565;53;21010;-69
2021/07/02 01:48:33;;;;;;;5.87;3.00;;;17.30;74.50;;;;;;2347339;53;21018;-67
2021/07/02 01:51:00;;;;;;;5.47;3.05;;;17.30;74.60;;;;;;2346013;53;20962;-69
2021/07/02 01:53:26;;;;;;;4.12;2.45;;;17.30;74.80;;;;;;2523638;52;21351;-68
2021/07/02 01:55:52;;;;;;;4.78;2.37;;;17.30;74.90;;;;;;2350868;53;20983;-69
2021/07/02 01:58:19;;;;;;;4.82;2.85;;;17.30;74.90;;;;;;2346653;53;20999;-67
2021/07/02 02:00:45;;;;;;;4.30;2.70;;;17.30;75.00;;;;;;2345154;53;21913;-65
2021/07/02 02:03:12;;;;;;;4.30;2.50;;;17.30;75.00;;;;;;2347589;53;21030;-68
2021/07/02 02:05:38;;;;;;;6.12;2.80;;;17.30;75.10;;;;;;2346549;53;20963;-68
2021/07/02 02:08:05;;;;;;;4.60;2.70;;;17.30;75.00;;;;;;2348469;53;21042;-67
2021/07/02 02:10:31;;;;;;;3.33;2.00;;;17.30;75.10;;;;;;2350928;53;21022;-67
2021/07/02 02:12:57;;;;;;;5.45;2.60;;;17.30;75.10;;;;;;2347801;53;20938;-66
2021/07/02 02:15:24;;;;;;;4.53;2.75;;;17.30;75.00;;;;;;2585773;52;20970;-66
2021/07/02 02:17:50;;;;;;;4.87;3.00;;;17.30;74.90;;;;;;2587127;52;20962;-67
2021/07/02 02:20:16;;;;;;;4.10;2.35;;;17.30;74.90;;;;;;2585199;52;20915;-66
2021/07/02 02:22:43;;;;;;;5.00;2.60;;;17.30;75.00;;;;;;2348981;53;21444;-66
2021/07/02 02:25:10;;;;;;;5.18;2.83;;;17.30;75.00;;;;;;2344894;53;20974;-66
2021/07/02 02:27:36;;;;;;;5.93;2.72;;;17.30;75.00;;;;;;2350676;53;21820;-66
2021/07/02 02:30:04;;;;;;;3.92;2.35;;;17.30;75.00;;;;;;2348374;53;20918;-66
2021/07/02 02:32:31;;;;;;;5.05;2.45;;;17.30;75.00;;;;;;2347768;53;21993;-66
2021/07/02 02:34:57;;;;;;;5.00;2.70;;;17.20;75.00;;;;;;2328450;54;21475;-66
2021/07/02 02:37:24;;;;;;;5.15;2.75;;;17.30;75.10;;;;;;2355780;53;20998;-66
2021/07/02 02:39:51;;;;;;;4.62;2.50;;;17.30;75.20;;;;;;2351032;53;20963;-66
2021/07/02 02:42:17;;;;;;;4.95;2.78;;;17.30;75.10;;;;;;2328069;54;20992;-66
2021/07/02 02:44:43;;;;;;;5.60;3.33;;;17.30;75.10;;;;;;2569144;52;21133;-66
2021/07/02 02:47:10;;;;;;;6.57;3.60;;;17.20;74.90;;;;;;2347205;53;21006;-66
2021/07/02 02:49:36;;;;;;;6.20;3.37;;;17.20;74.80;;;;;;2346654;53;20979;-66
2021/07/02 02:52:03;;;;;;;5.35;3.30;;;17.20;74.80;;;;;;2350540;53;20955;-66
2021/07/02 02:54:29;;;;;;;4.22;2.53;;;17.20;74.70;;;;;;2342749;53;20963;-66
2021/07/02 02:57:04;;;;;;;6.45;3.05;;;17.20;74.80;;;;;;2346314;53;20947;-66
2021/07/02 02:59:31;;;;;;;4.90;2.70;;;17.20;74.90;;;;;;2585484;52;21029;-66
2021/07/02 03:01:57;;;;;;;4.78;2.33;;;17.20;74.80;;;;;;2435144;52;20951;-66
2021/07/02 03:04:24;;;;;;;4.45;2.62;;;17.20;74.80;;;;;;2343198;53;20934;-66
2021/07/02 03:06:50;;;;;;;5.53;2.50;;;17.10;74.80;;;;;;2351767;53;20983;-66
2021/07/02 03:09:17;;;;;;;5.47;3.10;;;17.20;74.90;;;;;;2346740;53;20998;-66
2021/07/02 03:11:44;;;;;;;6.00;3.33;;;17.10;74.80;;;;;;2585806;52;20985;-66
2021/07/02 03:14:11;;;;;;;5.18;2.97;;;17.10;74.80;;;;;;2353041;53;20975;-66
2021/07/02 03:16:37;;;;;;;5.75;3.15;;;17.10;74.80;;;;;;2341290;53;20958;-66
2021/07/02 03:19:04;;;;;;;4.95;3.08;;;17.10;74.90;;;;;;2553053;52;20983;-66
2021/07/02 03:21:33;;;;;;;4.75;2.95;;;17.10;75.00;;;;;;2346515;53;20918;-67
2021/07/02 03:24:00;;;;;;;5.25;3.08;;;17.10;75.00;;;;;;2550100;52;20970;-66
2021/07/02 03:26:27;;;;;;;5.68;2.67;;;17.10;75.10;;;;;;2347856;53;20895;-67
2021/07/02 03:28:54;;;;;;;4.78;2.58;;;17.10;75.00;;;;;;2411766;52;21074;-67
2021/07/02 03:31:22;;;;;;;4.28;2.42;;;17.10;75.00;;;;;;2346105;53;20967;-68
2021/07/02 03:33:49;;;;;;;4.50;2.60;;;17.00;74.90;;;;;;2346479;53;21830;-67
2021/07/02 03:36:15;;;;;;;5.18;3.03;;;17.10;74.90;;;;;;2349882;53;20926;-66
2021/07/02 03:38:42;;;;;;;5.00;2.95;;;17.10;75.00;;;;;;2347278;53;20973;-66
2021/07/02 03:41:08;;;;;;;4.87;2.85;;;17.00;74.90;;;;;;2348157;53;20993;-66
2021/07/02 03:43:38;;;;;;;5.00;2.95;;;17.00;74.90;;;;;;2584023;52;20998;-66
2021/07/02 03:46:04;;;;;;;5.25;3.15;;;17.00;75.00;;;;;;2580051;52;21153;-66
2021/07/02 03:48:32;;;;;;;5.30;3.15;;;17.00;75.00;;;;;;2347331;53;20922;-66
2021/07/02 03:50:58;;;;;;;6.07;3.10;;;17.00;74.90;;;;;;2415088;52;20927;-66
2021/07/02 03:53:24;;;;;;;8.93;3.03;;;17.00;75.00;;;;;;2343132;53;21916;-66
2021/07/02 03:55:51;;;;;;;5.65;2.65;;;17.00;75.00;;;;;;2434288;52;21022;-66
2021/07/02 03:58:17;;;;;;;4.40;2.45;;;17.00;75.10;;;;;;2354671;53;20986;-66
2021/07/02 04:00:45;;;;;;;5.55;2.62;;;17.00;75.10;;;;;;2346329;53;21003;-66
2021/07/02 04:03:11;;;;;;;3.70;2.10;;;17.00;75.30;;;;;;2350001;53;20962;-66
2021/07/02 04:05:41;;;;;;;6.62;2.90;;;17.00;75.40;;;;;;2354775;53;20954;-66
2021/07/02 04:08:08;;;;;;;6.03;3.20;;;17.00;75.50;;;;;;2342475;53;21783;-66
2021/07/02 04:10:36;;;;;;;5.50;2.92;;;17.00;75.50;;;;;;2401230;52;20999;-67
2021/07/02 04:13:02;;;;;;;5.35;2.67;;;17.00;75.60;;;;;;2350577;53;21046;-66
2021/07/02 04:15:31;;;;;;;4.95;2.70;;;17.00;75.60;;;;;;2344068;53;21265;-66
2021/07/02 04:17:58;;;;;;;4.75;2.78;;;17.00;75.60;;;;;;2348515;53;20943;-66
2021/07/02 04:20:24;;;;;;;6.50;3.30;;;17.00;75.70;;;;;;2349438;53;21813;-66
2021/07/02 04:22:51;;;;;;;6.43;3.60;;;17.00;75.70;;;;;;2349561;53;21261;-66
2021/07/02 04:25:17;;;;;;;5.43;3.22;;;17.00;75.80;;;;;;2327269;53;21014;-66
2021/07/02 04:27:43;;;;;;;6.72;3.70;;;17.10;76.00;;;;;;2348465;53;21010;-66
2021/07/02 04:30:11;;;;;;;5.53;2.95;;;17.10;76.00;;;;;;2350111;53;20978;-66
2021/07/02 04:32:37;;;;;;;7.35;3.87;;;17.10;76.10;;;;;;2331925;53;23112;-66
2021/07/02 04:35:04;;;;;;;7.05;3.75;;;17.10;76.30;;;;;;2363175;53;21726;-66
2021/07/02 04:37:31;;;;;;;6.47;3.65;;;17.20;76.40;;;;;;2585651;52;21578;-66
2021/07/02 04:39:58;;;;;;;5.45;2.87;;;17.20;76.60;;;;;;2359877;52;21959;-66
2021/07/02 04:42:25;;;;;;;7.97;3.30;;;17.20;76.80;;;;;;2349081;53;20994;-66
2021/07/02 04:44:51;;;;;;;4.95;3.12;;;17.30;77.10;;;;;;2346112;53;21554;-66
2021/07/02 04:47:17;;;;;;;5.90;3.58;;;17.30;77.10;;;;;;2356400;52;20978;-66
2021/07/02 04:50:05;;;;;;;5.65;3.50;;;17.40;77.30;;;;;;2344263;53;21026;-66
2021/07/02 04:52:32;;;;;;;6.35;3.47;;;17.40;76.60;;;;;;2345873;53;21638;-68
2021/07/02 04:54:58;;;;;;;5.72;3.40;;;17.50;77.30;;;;;;2513661;52;20974;-66
2021/07/02 04:57:27;;;;;;;5.57;3.33;;;17.50;77.40;;;;;;2345782;53;21018;-66
2021/07/02 04:59:53;;;;;;;5.30;3.17;;;17.60;77.50;;;;;;2345013;53;21583;-67
2021/07/02 05:02:19;;;;;;;6.30;3.85;;;17.70;77.70;;;;;;2349376;53;21398;-68
2021/07/02 05:04:46;;;;;;;5.30;2.85;;;17.70;77.70;;;;;;2386258;52;21541;-68
2021/07/02 05:07:12;;;;;;;5.15;3.25;;;17.80;77.80;;;;;;2585851;52;20970;-70
2021/07/02 05:09:39;;;;;;;6.10;3.42;;;17.80;77.70;;;;;;2582667;52;20985;-66
2021/07/02 05:12:06;;;;;;;5.30;3.00;;;17.90;77.70;;;;;;2350196;53;20993;-66
2021/07/02 05:14:33;;;;;;;5.53;3.20;;;17.90;77.70;;;;;;2347015;53;21022;-66
2021/07/02 05:17:05;;;;;;;5.50;3.28;;;18.00;77.60;;;;;;2349054;53;21043;-66
2021/07/02 05:19:31;;;;;;;5.25;3.05;;;18.10;77.70;;;;;;2348975;53;21450;-68
2021/07/02 05:21:58;;;;;;;4.95;2.85;;;18.10;77.90;;;;;;2346466;53;20962;-67
2021/07/02 05:24:25;;;;;;;5.18;2.90;;;18.10;77.60;;;;;;2580252;52;20943;-66
2021/07/02 05:26:53;;;;;;;5.35;2.80;;;18.20;77.70;;;;;;2344792;53;21009;-69
2021/07/02 05:29:19;;;;;;;5.75;3.12;;;18.20;77.70;;;;;;2345265;53;21077;-68
2021/07/02 05:31:48;;;;;;;6.30;3.37;;;18.30;77.70;;;;;;2350635;53;20922;-66
2021/07/02 05:34:14;;;;;;;4.77;2.77;;;18.30;77.50;;;;;;2402235;52;7762625;-67
2021/07/02 05:36:41;;;;;;;5.40;3.25;;;18.30;77.30;;;;;;2348821;53;21770;-67
2021/07/02 05:39:07;;;;;;;5.95;2.92;;;18.40;77.30;;;;;;2349621;53;21010;-67
2021/07/02 05:41:33;;;;;;;5.37;3.10;;;18.40;77.00;;;;;;2353581;53;20946;-68
2021/07/02 05:44:00;;;;;;;4.70;2.72;;;18.40;76.80;;;;;;2347463;53;21018;-66
2021/07/02 05:46:26;;;;;;;6.37;2.72;;;18.50;76.70;;;;;;2349197;53;20990;-69
2021/07/02 05:48:52;;;;;;;5.28;3.15;;;18.50;76.70;;;;;;2352326;53;20970;-66
2021/07/02 05:51:19;;;;;;;5.93;2.87;;;18.50;76.70;;;;;;2345817;53;21018;-65
2021/07/02 05:53:45;;;;;;;7.22;3.62;;;18.50;76.80;;;;;;2346911;53;21078;-67
2021/07/02 05:56:11;;;;;;;6.75;3.03;;;18.50;77.00;;;;;;2366624;52;20969;-67
2021/07/02 05:58:38;;;;;;;4.50;3.00;;;18.50;77.10;;;;;;2350737;53;21838;-66
2021/07/02 06:01:04;;;;;;;4.78;2.87;;;18.60;77.30;;;;;;2352430;53;20906;-66
2021/07/02 06:03:30;;;;;;;4.87;2.80;;;18.60;77.30;;;;;;2417331;52;20950;-69
2021/07/02 06:06:08;;;;;;;6.50;3.03;;;18.70;77.50;;;;;;2348360;53;21161;-66
2021/07/02 06:08:34;;;;;;;4.97;2.90;;;18.70;77.50;;;;;;2349340;53;20986;-70
2021/07/02 06:11:01;;;;;;;4.95;2.70;;;18.80;77.60;;;;;;2347072;53;22035;-66
2021/07/02 06:13:27;;;;;;;6.80;3.37;;;18.80;77.60;;;;;;2351383;53;20978;-67
2021/07/02 06:15:54;;;;;;;5.45;3.20;;;18.80;77.60;;;;;;2348973;53;21576;-68
2021/07/02 06:18:20;;;;;;;5.07;2.85;;;18.90;77.70;;;;;;2346542;53;21680;-67
2021/07/02 06:20:51;;;;;;;6.10;3.45;;;18.90;77.80;;;;;;2346053;53;21356;-68
2021/07/02 06:23:21;;;;;;;6.62;3.75;;;19.00;78.00;;;;;;2348130;53;20950;-68
2021/07/02 06:25:47;;;;;;;7.95;3.75;;;19.10;77.80;;;;;;2355027;53;21124;-69
2021/07/02 06:28:13;;;;;;;5.45;3.42;;;19.10;78.20;;;;;;2587755;52;20927;-67
2021/07/02 06:30:40;;;;;;;6.25;3.85;;;19.20;78.50;;;;;;2446687;52;20973;-68
2021/07/02 06:33:07;;;;;;;5.93;3.65;;;19.30;78.60;;;;;;2345661;53;20966;-69
2021/07/02 06:35:33;;;;;;;6.45;3.80;;;19.30;79.20;;;;;;2346455;53;20966;-66
2021/07/02 06:37:59;;;;;;;8.50;4.62;;;19.40;78.70;;;;;;2345792;53;21029;-67
2021/07/02 06:40:26;;;;;;;6.30;3.85;;;19.50;79.00;;;;;;2584746;52;21011;-69
2021/07/02 06:42:52;;;;;;;7.25;4.28;;;19.60;79.10;;;;;;2346818;53;21041;-70
2021/07/02 06:45:20;;;;;;;7.62;4.93;;;19.70;79.20;;;;;;2455295;52;20997;-69
2021/07/02 06:47:57;;;;;;;7.20;4.43;;;19.80;78.90;;;;;;2347824;53;21033;-66
2021/07/02 06:50:28;;;;;;;8.30;5.05;;;19.90;78.70;;;;;;2346248;53;20938;-68
2021/07/02 06:52:54;;;;;;;6.45;4.22;;;20.00;78.90;;;;;;2331240;53;21013;-68
2021/07/02 06:55:20;;;;;;;9.68;5.40;;;20.10;79.10;;;;;;2344950;53;21939;-70
2021/07/02 06:57:47;;;;;;;8.32;5.22;;;20.10;78.40;;;;;;2345950;53;21313;-67
2021/07/02 07:00:16;;;;;;;7.47;4.43;;;20.20;78.40;;;;;;2347740;53;21080;-69
2021/07/02 07:02:43;;;;;;;7.70;4.82;;;20.30;78.40;;;;;;2347156;53;21014;-67
2021/07/02 07:05:10;;;;;;;7.75;4.40;;;20.40;77.90;;;;;;2342640;54;21820;-67
2021/07/02 07:07:39;;;;;;;6.87;4.45;;;20.40;77.30;;;;;;2328964;53;21030;-67
2021/07/02 07:10:06;;;;;;;6.80;3.58;;;20.50;77.00;;;;;;2392492;52;20975;-67
2021/07/02 07:12:33;;;;;;;6.95;4.30;;;20.50;77.30;;;;;;2506768;52;20918;-68
2021/07/02 07:15:02;;;;;;;7.32;4.50;;;20.60;76.90;;;;;;2329825;53;20917;-67
2021/07/02 07:17:30;;;;;;;10.15;5.28;;;20.60;76.50;;;;;;2345790;53;21352;-67
2021/07/02 07:19:57;;;;;;;6.55;4.10;;;20.60;76.50;;;;;;2349262;53;20942;-68
2021/07/02 07:22:23;;;;;;;5.30;3.58;;;20.70;77.00;;;;;;2346794;53;20934;-68
2021/07/02 07:24:50;;;;;;;5.22;3.40;;;20.70;77.50;;;;;;2347101;53;21030;-68
2021/07/02 07:27:17;;;;;;;5.53;3.47;;;20.80;77.90;;;;;;2345838;53;20926;-67
2021/07/02 07:29:46;;;;;;;6.00;4.07;;;20.90;78.00;;;;;;2346284;53;20990;-70
2021/07/02 07:32:12;;;;;;;6.40;3.70;;;21.00;77.90;;;;;;2515740;52;20994;-69
2021/07/02 07:34:48;;;;;;;5.28;3.62;;;21.00;78.10;;;;;;2354738;53;20962;-67
2021/07/02 07:37:21;;;;;;;6.28;3.80;;;21.10;78.50;;;;;;2340881;53;20997;-67
2021/07/02 07:39:49;;;;;;;4.90;3.10;;;21.30;78.40;;;;;;2586769;52;21490;-67
2021/07/02 07:42:15;;;;;;;6.62;2.97;;;21.40;78.30;;;;;;2351506;52;20938;-70
2021/07/02 07:44:41;;;;;;;5.75;3.08;;;21.40;77.90;;;;;;2347957;53;21522;-66
2021/07/02 07:47:11;;;;;;;4.72;2.90;;;21.60;77.80;;;;;;2348983;53;21549;-67
2021/07/02 07:49:38;;;;;;;4.53;2.85;;;21.60;77.50;;;;;;2354764;53;21031;-71
2021/07/02 07:52:24;;;;;;;4.95;3.00;;;21.70;77.30;;;;;;2355996;53;20946;-67
2021/07/02 07:54:51;;;;;;;4.37;2.92;;;21.80;76.70;;;;;;2350712;53;21025;-68
2021/07/02 07:57:17;;;;;;;5.78;3.25;;;21.80;76.30;;;;;;2347344;53;20986;-67
2021/07/02 07:59:43;;;;;;;6.03;3.90;;;21.90;76.40;;;;;;2350309;53;20966;-67
2021/07/02 08:02:11;;;;;;;5.03;3.37;;;21.90;75.50;;;;;;2350248;53;21050;-68
2021/07/02 08:04:37;;;;;;;5.12;3.33;;;21.90;76.40;;;;;;2347829;53;21009;-69
2021/07/02 08:07:04;;;;;;;4.10;2.80;;;22.00;75.90;;;;;;2589753;52;20899;-70
2021/07/02 08:09:31;;;;;;;5.30;3.37;;;22.00;76.30;;;;;;2349789;53;20958;-68
2021/07/02 08:11:58;;;;;;;4.10;2.45;;;22.10;76.40;;;;;;2350214;53;21014;-67
2021/07/02 08:14:24;;;;;;;5.03;3.17;;;22.10;76.30;;;;;;2352698;53;20970;-67
2021/07/02 08:16:53;;;;;;;4.75;3.03;;;22.20;76.20;;;;;;2411243;52;20949;-67
2021/07/02 08:19:20;;;;;;;5.70;3.72;;;22.20;76.10;;;;;;2347931;53;20963;-70
2021/07/02 08:21:46;;;;;;;5.43;3.25;;;22.30;75.70;;;;;;2348907;53;21033;-68
2021/07/02 08:24:12;;;;;;;4.97;3.00;;;22.30;75.50;;;;;;2363173;52;20966;-67
2021/07/02 08:26:40;;;;;;;3.97;2.55;;;22.30;75.70;;;;;;2349158;53;21006;-69
2021/07/02 08:31:54;;;;;;;4.37;2.83;;;22.50;76.10;;;;;;2539974;52;21491;-67
2021/07/02 08:34:20;;;;;;;4.80;2.70;;;22.60;76.40;;;;;;2348013;53;21287;-69
2021/07/02 08:36:46;;;;;;;4.37;2.50;;;22.60;76.20;;;;;;2590125;52;20990;-67
2021/07/02 08:39:12;;;;;;;4.40;2.70;;;22.70;76.00;;;;;;2346659;53;20951;-67
2021/07/02 08:41:39;;;;;;;5.03;3.53;;;22.70;75.70;;;;;;2348042;53;20978;-70
2021/07/02 08:44:06;;;;;;;6.37;3.53;;;22.80;75.20;;;;;;2349452;53;20962;-67
2021/07/02 08:46:34;;;;;;;6.70;3.40;;;22.80;74.90;;;;;;2589747;52;21441;-67
2021/07/02 08:49:03;;;;;;;4.93;3.37;;;22.90;74.70;;;;;;2329131;53;21034;-67
2021/07/02 08:51:31;;;;;;;7.62;3.58;;;22.90;74.40;;;;;;2350673;53;21272;-71
2021/07/02 08:54:01;;;;;;;6.15;4.05;;;22.90;73.80;;;;;;2348233;53;20995;-67
2021/07/02 08:56:27;;;;;;;5.97;3.05;;;23.00;72.90;;;;;;2348397;53;21798;-67
2021/07/02 08:58:53;;;;;;;5.95;3.10;;;23.00;73.90;;;;;;2350809;53;21747;-69
2021/07/02 09:01:42;;;;;;;5.60;3.05;;;23.00;74.20;;;;;;2355685;53;20987;-67
2021/07/02 09:04:41;;;;;;;5.75;3.70;;;23.10;72.10;;;;;;2362828;52;21526;-70
2021/07/02 09:07:15;;;;;;;6.78;3.85;;;23.10;71.40;;;;;;2354468;53;21494;-69
2021/07/02 09:09:59;;;;;;;5.50;3.53;;;23.20;73.00;;;;;;2354112;53;21422;-67
2021/07/02 09:12:31;;;;;;;5.15;3.35;;;23.20;71.90;;;;;;2351798;53;20947;-67
2021/07/02 09:15:13;;;;;;;4.32;3.12;;;23.30;74.20;;;;;;2346563;53;20972;-67
2021/07/02 09:18:13;;;;;;;5.12;3.53;;;23.40;72.60;;;;;;2354051;53;21414;-66
2021/07/02 09:20:40;;;;;;;5.12;3.08;;;23.40;71.50;;;;;;2346809;53;21026;-67
2021/07/02 09:23:08;;;;;;;5.15;3.80;;;23.50;74.00;;;;;;2354135;53;20962;-69
2021/07/02 09:25:46;;;;;;;4.45;3.25;;;23.50;73.70;;;;;;2347925;53;21018;-67
2021/07/02 09:28:14;;;;;;;6.03;3.97;;;23.60;73.40;;;;;;2350874;53;20922;-67
2021/07/02 09:30:41;;;;;;;5.87;4.25;;;23.60;72.20;;;;;;2588595;52;20947;-67
2021/07/02 09:33:09;;;;;;;4.82;3.33;;;23.70;73.00;;;;;;2352985;53;21017;-68
2021/07/02 09:35:44;;;;;;;5.93;3.47;;;23.80;73.10;;;;;;2470468;52;20924;-67
2021/07/02 09:38:10;;;;;;;6.18;3.60;;;23.80;72.60;;;;;;2349046;53;21010;-67
2021/07/02 09:40:37;;;;;;;4.72;3.03;;;23.90;72.70;;;;;;2348233;53;20938;-67
2021/07/02 09:43:56;;;;;;;6.87;3.47;;;23.90;72.60;;;;;;2351031;53;20922;-70
2021/07/02 09:46:29;;;;;;;4.97;3.22;;;24.00;69.60;;;;;;2352518;53;20995;-68
2021/07/02 09:48:55;;;;;;;4.90;3.28;;;24.10;71.30;;;;;;2542897;52;20986;-70
2021/07/02 09:51:25;;;;;;;5.12;3.30;;;24.10;72.30;;;;;;2588778;52;21133;-66
2021/07/02 09:54:04;;;;;;;4.60;3.10;;;24.10;71.60;;;;;;2347302;53;21820;-71
2021/07/02 09:56:30;;;;;;;5.12;2.62;;;24.10;70.30;;;;;;2350871;53;21077;-67
2021/07/02 09:58:56;;;;;;;5.10;3.47;;;24.10;72.40;;;;;;2346843;53;20993;-68
2021/07/02 10:01:25;;;;;;;5.30;3.55;;;24.20;72.20;;;;;;2350530;53;22051;-67
2021/07/02 10:03:51;;;;;;;4.82;3.35;;;24.30;72.10;;;;;;2346094;53;20933;-68
2021/07/02 10:06:21;;;;;;;5.37;3.53;;;24.30;71.80;;;;;;2349032;53;20921;-67
2021/07/02 10:08:50;;;;;;;5.10;3.10;;;24.40;70.90;;;;;;2349519;53;21038;-68
2021/07/02 10:11:23;;;;;;;5.25;3.50;;;24.40;70.40;;;;;;2352425;53;20993;-68
2021/07/02 10:13:50;;;;;;;4.87;3.20;;;24.40;70.40;;;;;;2349087;53;21022;-68
2021/07/02 10:16:17;;;;;;;4.72;2.90;;;24.50;70.90;;;;;;2348656;53;20966;-68
2021/07/02 10:18:47;;;;;;;4.57;3.05;;;24.50;70.70;;;;;;2347672;53;20962;-67
2021/07/02 10:21:15;;;;;;;5.78;2.83;;;24.60;69.90;;;;;;2348609;53;21043;-68
2021/07/02 10:23:42;;;;;;;4.30;2.80;;;24.60;70.60;;;;;;2347657;53;20954;-69
2021/07/02 10:26:08;;;;;;;4.07;2.65;;;24.60;71.20;;;;;;2352397;53;20918;-68
2021/07/02 10:28:36;;;;;;;5.05;3.12;;;24.60;70.30;;;;;;2351578;53;20946;-68
2021/07/02 10:31:06;;;;;;;4.07;2.65;;;24.70;70.30;;;;;;2541797;52;20990;-68
2021/07/02 10:33:32;;;;;;;4.50;2.40;;;24.70;70.10;;;;;;2351318;53;21516;-70
2021/07/02 10:36:03;;;;;;;4.78;3.10;;;24.80;70.30;;;;;;2533294;52;21568;-69
2021/07/02 10:39:02;;;;;;;3.87;2.50;;;24.80;70.10;;;;;;2353839;53;20983;-68
2021/07/02 10:41:31;;;;;;;4.65;2.50;;;24.80;67.60;;;;;;2327940;54;21029;-69
2021/07/02 10:44:18;;;;;;;4.53;2.65;;;24.80;69.90;;;;;;2350514;53;21946;-67
2021/07/02 10:47:20;;;;;;;4.05;2.58;;;24.90;67.30;;;;;;2348349;53;20982;-70
2021/07/02 10:49:46;;;;;;;4.55;2.70;;;24.90;66.70;;;;;;2388920;52;21732;-67
2021/07/02 10:52:28;;;;;;;4.12;2.78;;;24.80;69.50;;;;;;2345904;53;21561;-68
2021/07/02 10:54:56;;;;;;;4.10;2.47;;;24.90;67.70;;;;;;2349155;53;20942;-68
2021/07/02 10:57:25;;;;;;;4.28;2.83;;;24.90;70.00;;;;;;2348673;53;21391;-68
2021/07/02 11:00:03;;;;;;;4.87;3.35;;;24.90;69.60;;;;;;2351949;53;20942;-67
2021/07/02 11:02:29;;;;;;;4.87;3.00;;;25.00;68.40;;;;;;2352233;53;20945;-68
2021/07/02 11:04:56;;;;;;;4.70;3.30;;;25.00;70.10;;;;;;2352837;53;21014;-67
2021/07/02 11:07:43;;;;;;;4.07;2.67;;;25.10;70.10;;;;;;2352662;53;20930;-68
2021/07/02 11:10:10;;;;;;;4.35;3.15;;;25.20;67.40;;;;;;2350064;53;21020;-68
2021/07/02 11:12:58;;;;;;;4.62;3.10;;;25.20;70.00;;;;;;2348495;53;20986;-68
2021/07/02 11:15:26;;;;;;;4.65;3.00;;;25.30;67.10;;;;;;2351216;53;20943;-69
2021/07/02 11:18:13;;;;;;;4.78;3.00;;;25.30;70.00;;;;;;2348216;53;21062;-68
2021/07/02 11:20:40;;;;;;;4.53;3.12;;;25.40;67.20;;;;;;2349297;53;21767;-72
2021/07/02 11:23:19;;;;;;;6.37;3.25;;;25.40;69.80;;;;;;2352482;53;21041;-68
2021/07/02 11:28:50;;;;;;;5.22;3.20;;;25.60;69.20;;;;;;2354703;53;21727;-71
2021/07/02 11:31:18;;;;;;;5.45;3.20;;;25.70;69.70;;;;;;2588233;52;20958;-68
2021/07/02 11:33:45;;;;;;;4.65;3.03;;;25.70;69.10;;;;;;2588049;52;20991;-67
2021/07/02 11:36:14;;;;;;;4.85;2.95;;;25.80;68.90;;;;;;2348771;53;21399;-70
2021/07/02 11:38:45;;;;;;;4.20;2.70;;;25.80;68.50;;;;;;2588701;52;20957;-70
2021/07/02 11:41:28;;;;;;;4.53;2.67;;;25.90;68.40;;;;;;2587541;52;21102;-68
2021/07/02 11:43:56;;;;;;;4.60;2.65;;;25.90;67.60;;;;;;2508051;52;20918;-71
2021/07/02 11:46:24;;;;;;;4.57;2.90;;;26.00;69.40;;;;;;2348024;53;20990;-68
2021/07/02 11:48:53;;;;;;;5.87;2.70;;;26.00;69.40;;;;;;2348122;53;21014;-68
2021/07/02 11:51:25;;;;;;;4.85;3.40;;;26.10;69.40;;;;;;2351428;53;20934;-68
2021/07/02 11:54:02;;;;;;;4.30;2.93;;;26.20;68.60;;;;;;2349430;53;20967;-68
2021/07/02 11:56:38;;;;;;;4.62;3.00;;;26.20;68.00;;;;;;2350266;53;21276;-67
2021/07/02 11:59:05;;;;;;;4.32;2.87;;;26.30;69.10;;;;;;2342240;53;21938;-68
2021/07/02 12:01:39;;;;;;;4.45;2.72;;;26.30;68.60;;;;;;2444352;52;20985;-68
2021/07/02 12:04:18;;;;;;;4.22;2.97;;;26.30;68.20;;;;;;2350453;53;20910;-68
2021/07/02 12:06:48;;;;;;;4.37;3.05;;;26.30;68.00;;;;;;2348524;53;21411;-69
2021/07/02 12:09:33;;;;;;;4.50;2.92;;;26.30;67.30;;;;;;2590892;52;20917;-68
2021/07/02 12:11:59;;;;;;;4.20;2.80;;;26.30;67.80;;;;;;2345466;53;21514;-67
2021/07/02 12:14:31;;;;;;;4.40;3.05;;;26.30;68.00;;;;;;2447967;52;20962;-70
2021/07/02 12:16:58;;;;;;;5.18;3.20;;;26.30;67.70;;;;;;2349233;53;21275;-68
2021/07/02 12:19:28;;;;;;;4.95;3.12;;;26.40;68.50;;;;;;2344781;53;20926;-69
2021/07/02 12:21:56;;;;;;;4.80;3.17;;;26.40;68.20;;;;;;2376719;52;20997;-68
2021/07/02 12:24:24;;;;;;;6.15;3.50;;;26.40;68.40;;;;;;2348083;53;20954;-71
2021/07/02 12:26:57;;;;;;;5.28;3.00;;;26.50;68.30;;;;;;2521778;52;21712;-70
2021/07/02 12:29:28;;;;;;;5.00;3.15;;;26.50;67.10;;;;;;2347611;53;21034;-68
2021/07/02 12:31:55;;;;;;;5.35;3.05;;;26.50;67.50;;;;;;2349056;53;20990;-69
2021/07/02 12:34:32;;;;;;;5.87;2.92;;;26.60;68.30;;;;;;2355722;53;21030;-67
2021/07/02 12:37:08;;;;;;;5.50;3.60;;;26.60;67.80;;;;;;2352087;53;21502;-68
2021/07/02 12:39:44;;;;;;;4.60;3.33;;;26.70;66.50;;;;;;2350231;53;20950;-68
2021/07/02 12:42:12;;;;;;;5.60;3.55;;;26.70;67.80;;;;;;2348531;53;21584;-68
2021/07/02 12:44:40;;;;;;;6.62;3.22;;;26.80;68.80;;;;;;2346376;53;20950;-71
2021/07/02 12:47:07;;;;;;;5.28;3.40;;;26.80;67.80;;;;;;2351302;53;20904;-71
2021/07/02 12:49:58;;;;;;;4.82;3.03;;;26.90;67.70;;;;;;2347954;53;21479;-68
2021/07/02 12:55:37;;;;;;;4.77;2.90;;;27.10;67.80;;;;;;2349206;53;21829;-67
2021/07/02 12:58:05;;;;;;;4.62;3.10;;;27.10;68.20;;;;;;2348447;53;21407;-68
2021/07/02 13:00:36;;;;;;;4.90;2.92;;;27.10;67.90;;;;;;2351849;53;21506;-68
2021/07/02 13:03:05;;;;;;;5.82;3.12;;;27.20;67.10;;;;;;2588519;52;21982;-68
2021/07/02 13:05:35;;;;;;;4.57;3.03;;;27.20;67.70;;;;;;2356404;53;21741;-68
2021/07/02 13:08:11;;;;;;;4.60;3.10;;;27.20;67.20;;;;;;2344096;53;20937;-71